Time;durP1;ratioP1;P1;durP2;ratioP2;P2;SDS_P1;SDS_P2;PMS_P1;PMS_P2;Temp;Humidity;BMP_temperature;BMP_pressure;BME280_temperature;BME280_humidity;BME280_pressure;Samples;Min_cycle;Max_cycle;Signal;HPM_P1;HPM_P2
2023/02/17 00:01:32;;;;;;;29.85;14.85;;;;;;;7.99;100.00;101461.41;6286217;28;20104;-75
2023/02/17 00:04:34;;;;;;;31.92;13.95;;;;;;;8.01;100.00;101464.84;6277636;28;20041;-75
2023/02/17 00:07:36;;;;;;;32.30;14.43;;;;;;;8.02;100.00;101468.34;6271826;28;20041;-75
2023/02/17 00:10:37;;;;;;;29.30;13.10;;;;;;;8.00;100.00;101464.91;6253300;28;20046;-76
2023/02/17 00:13:39;;;;;;;29.80;13.38;;;;;;;8.01;100.00;101474.47;6269126;28;20049;-75
2023/02/17 00:16:41;;;;;;;27.77;14.02;;;;;;;8.03;100.00;101481.34;6252778;28;20353;-75
2023/02/17 00:19:44;;;;;;;26.02;13.85;;;;;;;8.05;100.00;101482.19;6258698;28;20045;-75
2023/02/17 00:22:45;;;;;;;28.98;13.38;;;;;;;8.11;100.00;101476.75;6269295;28;20060;-75
2023/02/17 00:25:46;;;;;;;30.35;14.07;;;;;;;8.06;100.00;101475.19;6269582;28;20049;-75
2023/02/17 00:28:49;;;;;;;28.00;14.35;;;;;;;8.08;100.00;101462.88;6252877;28;20441;-75
2023/02/17 00:31:52;;;;;;;29.92;14.45;;;;;;;8.08;100.00;101462.88;6251979;28;20052;-75
2023/02/17 00:34:57;;;;;;;30.15;13.77;;;;;;;8.13;100.00;101453.16;6252462;28;20053;-75
2023/02/17 00:37:58;;;;;;;34.00;15.95;;;;;;;8.24;100.00;101450.19;6252162;28;20046;-75
2023/02/17 00:40:59;;;;;;;27.33;14.10;;;;;;;8.33;100.00;101447.28;6252382;28;20069;-75
2023/02/17 00:44:01;;;;;;;29.05;15.13;;;;;;;8.35;100.00;101448.91;6270163;28;20052;-75
2023/02/17 00:47:02;;;;;;;31.35;15.55;;;;;;;8.30;100.00;101450.84;6276554;28;20476;-76
2023/02/17 00:50:06;;;;;;;28.92;14.48;;;;;;;8.35;100.00;101451.53;6283455;28;20059;-75
2023/02/17 00:53:08;;;;;;;31.48;14.02;;;;;;;8.36;100.00;101455.03;6251739;28;20052;-75
2023/02/17 00:56:10;;;;;;;28.77;13.27;;;;;;;8.31;100.00;101452.56;6268271;28;20049;-75
2023/02/17 00:59:12;;;;;;;31.58;15.00;;;;;;;8.36;100.00;101457.66;6268150;28;20041;-75
2023/02/17 01:02:13;;;;;;;31.73;14.90;;;;;;;8.36;100.00;101453.31;6251978;28;20056;-74
2023/02/17 01:05:16;;;;;;;32.63;13.82;;;;;;;8.34;100.00;101444.59;6251372;28;20048;-75
2023/02/17 01:08:18;;;;;;;34.40;15.57;;;;;;;8.38;100.00;101445.38;6262656;28;20049;-75
2023/02/17 01:11:21;;;;;;;30.88;13.60;;;;;;;8.35;100.00;101440.19;6280071;28;20352;-75
2023/02/17 01:14:23;;;;;;;31.75;14.15;;;;;;;8.32;100.00;101433.31;6277689;28;20049;-75
2023/02/17 01:17:24;;;;;;;31.00;14.32;;;;;;;8.36;100.00;101427.13;6275796;28;20052;-75
2023/02/17 01:20:27;;;;;;;32.80;16.00;;;;;;;8.38;100.00;101419.19;6280640;28;20059;-75
2023/02/17 01:23:28;;;;;;;28.77;14.27;;;;;;;8.38;100.00;101416.56;6273448;28;20046;-75
2023/02/17 01:26:32;;;;;;;30.30;14.95;;;;;;;8.43;100.00;101413.81;6272422;28;20044;-75
2023/02/17 01:29:33;;;;;;;31.23;14.85;;;;;;;8.39;100.00;101405.19;6275887;28;20048;-75
2023/02/17 01:32:36;;;;;;;27.10;14.52;;;;;;;8.40;100.00;101414.75;6274907;28;20044;-75
2023/02/17 01:35:39;;;;;;;37.03;16.10;;;;;;;8.42;100.00;101410.31;6275691;28;20429;-75
2023/02/17 01:38:41;;;;;;;35.25;14.88;;;;;;;8.41;100.00;101413.00;6275635;28;20044;-75
2023/02/17 01:41:42;;;;;;;30.58;14.80;;;;;;;8.40;100.00;101399.03;6275743;28;20045;-75
2023/02/17 01:45:24;;;;;;;25.40;13.70;;;;;;;8.44;100.00;101399.78;6274067;28;20068;-75
2023/02/17 01:48:28;;;;;;;28.38;13.85;;;;;;;8.46;100.00;101391.00;6266784;28;20204;-75
2023/02/17 01:51:35;;;;;;;30.23;14.57;;;;;;;8.51;100.00;101396.06;6280180;28;20055;-75
2023/02/17 01:54:42;;;;;;;28.50;14.20;;;;;;;8.56;100.00;101392.38;6254451;28;20041;-75
2023/02/17 01:57:45;;;;;;;29.70;15.15;;;;;;;8.59;100.00;101386.19;6250170;28;20072;-75
2023/02/17 02:00:48;;;;;;;25.60;13.20;;;;;;;8.57;100.00;101388.00;6250779;28;20060;-75
2023/02/17 02:03:51;;;;;;;36.00;15.15;;;;;;;8.58;100.00;101384.44;6250513;28;20049;-74
2023/02/17 02:06:54;;;;;;;30.73;13.68;;;;;;;8.56;100.00;101379.28;6265073;28;20060;-74
2023/02/17 02:09:57;;;;;;;25.60;12.82;;;;;;;8.55;100.00;101374.09;6273575;28;20071;-74
2023/02/17 02:12:59;;;;;;;32.33;13.85;;;;;;;8.54;100.00;101365.38;6250361;28;20132;-74
2023/02/17 02:16:10;;;;;;;30.10;14.02;;;;;;;8.55;100.00;101363.63;6250125;28;20045;-74
2023/02/17 02:19:45;;;;;;;27.02;13.40;;;;;;;8.56;100.00;101368.78;6250295;28;20045;-74
2023/02/17 02:23:07;;;;;;;31.17;14.02;;;;;;;8.62;100.00;101349.38;6266077;28;20147;-74
2023/02/17 02:26:49;;;;;;;30.70;14.23;;;;;;;8.61;100.00;101350.28;6274930;28;20041;-74
2023/02/17 02:30:11;;;;;;;27.33;13.23;;;;;;;8.55;100.00;101346.13;6257761;28;20076;-74
2023/02/17 02:33:23;;;;;;;27.65;12.65;;;;;;;8.57;100.00;101335.59;6261200;28;20061;-74
2023/02/17 02:36:29;;;;;;;31.33;14.25;;;;;;;8.56;100.00;101332.13;6274046;28;20044;-74
2023/02/17 02:39:37;;;;;;;29.77;14.13;;;;;;;8.54;100.00;101327.84;6274617;28;20048;-74
2023/02/17 02:42:40;;;;;;;29.33;14.20;;;;;;;8.54;100.00;101331.34;6277235;28;20044;-74
2023/02/17 02:45:41;;;;;;;26.23;12.85;;;;;;;8.54;100.00;101331.34;6279670;28;20052;-74
2023/02/17 02:48:45;;;;;;;33.30;12.70;;;;;;;8.61;100.00;101335.44;6279801;28;20049;-74
2023/02/17 02:51:53;;;;;;;21.88;12.07;;;;;;;8.60;100.00;101322.41;6287496;28;20360;-74
2023/02/17 02:55:06;;;;;;;25.05;13.50;;;;;;;8.65;100.00;101320.47;6280114;28;20060;-74
2023/02/17 02:58:17;;;;;;;24.73;11.95;;;;;;;8.69;100.00;101327.31;6281389;28;20051;-74
2023/02/17 03:01:29;;;;;;;24.77;12.90;;;;;;;8.67;100.00;101321.25;6263533;28;20038;-74
2023/02/17 03:04:36;;;;;;;30.02;11.85;;;;;;;8.73;100.00;101314.94;6276251;28;20045;-74
2023/02/17 03:07:42;;;;;;;30.40;13.63;;;;;;;8.73;100.00;101302.69;6278481;28;20049;-74
2023/02/17 03:10:48;;;;;;;28.30;12.77;;;;;;;8.76;100.00;101310.44;6279027;28;20135;-74
2023/02/17 03:13:49;;;;;;;23.42;13.20;;;;;;;8.80;100.00;101313.81;6278863;28;20361;-74
2023/02/17 03:16:51;;;;;;;28.70;12.65;;;;;;;8.79;100.00;101319.97;6278906;28;20053;-74
2023/02/17 03:19:54;;;;;;;27.27;12.13;;;;;;;8.82;100.00;101310.22;6271003;28;20041;-74
2023/02/17 03:22:56;;;;;;;27.20;13.18;;;;;;;8.82;100.00;101289.25;6278900;28;20049;-74
2023/02/17 03:25:57;;;;;;;25.20;12.48;;;;;;;8.85;100.00;101289.13;6277777;28;20057;-73
2023/02/17 03:28:59;;;;;;;30.58;13.60;;;;;;;8.85;100.00;101283.88;6253873;28;20053;-73
2023/02/17 03:32:01;;;;;;;24.55;12.52;;;;;;;8.90;100.00;101283.72;6254241;28;20049;-73
2023/02/17 03:35:04;;;;;;;25.23;11.60;;;;;;;8.91;100.00;101292.44;6253415;28;20049;-73
2023/02/17 03:38:06;;;;;;;22.75;11.65;;;;;;;8.94;100.00;101287.06;6259746;28;20057;-74
2023/02/17 03:41:07;;;;;;;24.35;11.48;;;;;;;8.99;100.00;101285.13;6278463;28;20045;-73
2023/02/17 03:44:08;;;;;;;24.08;12.43;;;;;;;8.96;100.00;101272.16;6277869;28;20451;-73
2023/02/17 03:47:10;;;;;;;24.90;12.05;;;;;;;8.98;100.00;101272.94;6278245;28;20049;-74
2023/02/17 03:50:12;;;;;;;28.52;13.05;;;;;;;9.03;100.00;101268.38;6278094;28;20064;-74
2023/02/17 03:53:14;;;;;;;20.65;10.05;;;;;;;8.97;100.00;101255.50;6277258;28;20048;-73
2023/02/17 03:56:16;;;;;;;17.60;10.60;;;;;;;9.00;100.00;101256.25;6275175;28;20052;-74
2023/02/17 03:59:17;;;;;;;18.45;9.95;;;;;;;9.01;100.00;101260.56;6278459;28;20053;-73
2023/02/17 04:02:18;;;;;;;18.58;10.13;;;;;;;9.04;100.00;101260.47;6278419;28;20056;-74
2023/02/17 04:05:21;;;;;;;19.50;10.30;;;;;;;8.95;100.00;101265.19;6265376;28;20437;-74
2023/02/17 04:08:23;;;;;;;23.00;10.40;;;;;;;8.94;100.00;101266.09;6268679;28;20040;-74
2023/02/17 04:11:24;;;;;;;18.92;9.93;;;;;;;8.96;100.00;101267.75;6268912;28;20049;-74
2023/02/17 04:14:25;;;;;;;17.15;9.65;;;;;;;8.96;100.00;101251.19;6281981;28;20051;-74
2023/02/17 04:17:27;;;;;;;22.20;10.82;;;;;;;8.98;100.00;101246.72;6264457;28;20052;-74
2023/02/17 04:20:29;;;;;;;18.35;8.90;;;;;;;8.94;100.00;101238.13;6277550;28;20452;-74
2023/02/17 04:23:31;;;;;;;18.42;9.30;;;;;;;8.94;100.00;101237.28;6277157;28;20040;-74
2023/02/17 04:26:32;;;;;;;16.45;8.60;;;;;;;8.95;100.00;101252.06;6277083;28;20045;-74
2023/02/17 04:29:33;;;;;;;18.70;9.40;;;;;;;8.94;100.00;101239.91;6279990;28;20053;-74
2023/02/17 04:32:35;;;;;;;16.10;8.13;;;;;;;8.92;100.00;101236.50;6252488;28;20464;-74
2023/02/17 04:35:38;;;;;;;17.00;9.05;;;;;;;8.99;100.00;101238.78;6252156;28;20042;-74
2023/02/17 04:38:39;;;;;;;20.45;9.23;;;;;;;8.99;100.00;101235.31;6266137;28;20053;-74
2023/02/17 04:41:40;;;;;;;19.20;9.95;;;;;;;8.99;100.00;101230.06;6276959;28;20041;-74
2023/02/17 04:44:42;;;;;;;16.30;8.85;;;;;;;9.00;100.00;101230.03;6276681;28;20052;-74
2023/02/17 04:47:43;;;;;;;19.02;9.20;;;;;;;9.01;100.00;101231.75;6276745;28;20053;-73
2023/02/17 04:50:46;;;;;;;20.00;9.57;;;;;;;8.98;100.00;101231.00;6276704;28;20368;-74
2023/02/17 04:53:47;;;;;;;22.27;10.02;;;;;;;9.02;100.00;101236.06;6284701;28;20463;-73
2023/02/17 04:56:49;;;;;;;18.48;9.63;;;;;;;9.07;100.00;101235.88;6261380;28;20112;-74
2023/02/17 04:59:50;;;;;;;18.58;8.48;;;;;;;9.10;100.00;101235.78;6239943;28;20451;-74
2023/02/17 05:02:51;;;;;;;18.80;9.57;;;;;;;9.11;100.00;101219.97;6255911;28;20051;-74
2023/02/17 05:05:54;;;;;;;18.88;9.77;;;;;;;9.04;100.00;101205.41;6257538;28;20060;-73
2023/02/17 05:08:55;;;;;;;18.38;9.50;;;;;;;9.08;100.00;101207.00;6263769;28;20055;-74
2023/02/17 05:11:57;;;;;;;17.38;9.55;;;;;;;9.07;100.00;101200.03;6264155;28;20049;-74
2023/02/17 05:14:58;;;;;;;17.73;9.95;;;;;;;9.11;100.00;101193.75;6245846;28;20050;-74
2023/02/17 05:17:59;;;;;;;20.02;8.93;;;;;;;9.11;100.00;101188.50;6242851;28;20053;-74
2023/02/17 05:21:02;;;;;;;20.25;9.35;;;;;;;9.18;100.00;101190.91;6239522;28;20052;-74
2023/02/17 05:24:04;;;;;;;17.50;8.70;;;;;;;9.21;100.00;101185.50;6234090;28;20056;-74
2023/02/17 05:27:06;;;;;;;17.92;9.88;;;;;;;9.23;100.00;101187.16;6232822;28;20087;-73
2023/02/17 05:30:08;;;;;;;17.88;9.00;;;;;;;9.21;100.00;101175.03;6239788;28;20037;-74
2023/02/17 05:33:09;;;;;;;20.15;9.25;;;;;;;9.19;100.00;101167.22;6245884;28;20053;-73
2023/02/17 05:36:12;;;;;;;18.73;9.57;;;;;;;9.22;100.00;101158.38;6249365;28;20056;-74
2023/02/17 05:39:13;;;;;;;18.92;9.73;;;;;;;9.22;100.00;101161.00;6254857;28;20048;-73
2023/02/17 05:42:15;;;;;;;15.27;8.25;;;;;;;9.25;100.00;101166.97;6260255;28;20049;-74
2023/02/17 05:45:16;;;;;;;18.65;10.05;;;;;;;9.33;100.00;101166.66;6265153;28;20060;-73
2023/02/17 05:48:18;;;;;;;16.83;8.35;;;;;;;9.32;100.00;101167.59;6264899;28;20044;-73
2023/02/17 05:51:20;;;;;;;17.40;9.18;;;;;;;9.38;100.00;101164.69;6266417;28;20041;-73
2023/02/17 05:54:22;;;;;;;19.55;9.48;;;;;;;9.39;100.00;101154.13;6259951;28;20045;-74
2023/02/17 05:57:23;;;;;;;21.83;9.75;;;;;;;9.43;100.00;101172.38;6273142;28;20048;-73
2023/02/17 06:00:25;;;;;;;17.52;7.88;;;;;;;9.47;100.00;101166.09;6264011;28;20052;-73
2023/02/17 06:03:26;;;;;;;20.00;9.27;;;;;;;9.50;100.00;101160.72;6259628;28;20052;-73
2023/02/17 06:06:29;;;;;;;17.40;9.18;;;;;;;9.56;100.00;101165.69;6261225;28;20160;-73
2023/02/17 06:09:30;;;;;;;20.98;9.13;;;;;;;9.48;100.00;101159.91;6259406;28;20041;-73
2023/02/17 06:12:31;;;;;;;16.15;7.75;;;;;;;9.47;100.00;101164.31;6258499;28;20338;-73
2023/02/17 06:15:33;;;;;;;13.40;7.55;;;;;;;9.44;100.00;101169.69;6265235;28;20041;-73
2023/02/17 06:18:34;;;;;;;18.17;8.70;;;;;;;9.48;100.00;101158.13;6256684;28;20036;-73
2023/02/17 06:21:37;;;;;;;18.58;8.45;;;;;;;9.53;100.00;101139.59;6258473;28;20041;-74
2023/02/17 06:24:38;;;;;;;18.55;8.50;;;;;;;9.55;100.00;101132.50;6266255;28;20041;-73
2023/02/17 06:27:41;;;;;;;19.42;8.90;;;;;;;9.58;100.00;101137.59;6269485;28;20050;-74
2023/02/17 06:30:43;;;;;;;19.02;8.90;;;;;;;9.65;100.00;101146.94;6263381;28;20426;-74
2023/02/17 06:33:44;;;;;;;16.80;7.95;;;;;;;9.60;100.00;101148.91;6263246;28;20052;-73
2023/02/17 06:36:47;;;;;;;16.48;8.60;;;;;;;9.59;100.00;101128.84;6264328;28;20060;-73
2023/02/17 06:39:48;;;;;;;22.95;11.48;;;;;;;9.56;100.00;101134.22;6263134;28;20048;-74
2023/02/17 06:42:49;;;;;;;17.75;8.30;;;;;;;9.60;100.00;101141.88;6263496;28;20048;-74
2023/02/17 06:45:51;;;;;;;14.23;7.35;;;;;;;9.60;100.00;101141.03;6261409;28;20050;-73
2023/02/17 06:48:52;;;;;;;17.35;7.88;;;;;;;9.60;100.00;101134.00;6265259;28;20045;-73
2023/02/17 06:51:55;;;;;;;14.23;8.07;;;;;;;9.66;100.00;101139.00;6265032;28;20048;-74
2023/02/17 06:54:56;;;;;;;15.95;7.20;;;;;;;9.66;100.00;101128.50;6274454;28;20049;-73
2023/02/17 06:57:57;;;;;;;12.70;6.93;;;;;;;9.72;100.00;101129.13;6274590;28;20049;-73
2023/02/17 07:00:58;;;;;;;16.30;8.27;;;;;;;9.68;100.00;101117.94;6274355;28;20049;-73
2023/02/17 07:04:00;;;;;;;14.23;6.90;;;;;;;9.68;100.00;101096.97;6274640;28;20060;-74
2023/02/17 07:07:03;;;;;;;15.15;7.47;;;;;;;9.63;100.00;101106.81;6274319;28;20045;-73
2023/02/17 07:10:05;;;;;;;12.65;7.03;;;;;;;9.69;100.00;101100.44;6273874;28;20045;-74
2023/02/17 07:13:07;;;;;;;13.02;7.20;;;;;;;9.68;100.00;101096.09;6276410;28;20053;-74
2023/02/17 07:16:09;;;;;;;15.45;7.10;;;;;;;9.67;100.00;101092.59;6272104;28;20052;-74
2023/02/17 07:19:11;;;;;;;13.95;7.20;;;;;;;9.71;100.00;101093.31;6274447;28;20045;-74
2023/02/17 07:22:13;;;;;;;12.15;6.60;;;;;;;9.73;100.00;101102.84;6274343;28;20057;-74
2023/02/17 07:25:15;;;;;;;16.98;7.50;;;;;;;9.71;100.00;101120.41;6274224;28;20056;-74
2023/02/17 07:28:17;;;;;;;13.05;7.07;;;;;;;9.75;100.00;101092.28;6274082;28;20348;-74
2023/02/17 07:31:18;;;;;;;14.77;6.43;;;;;;;9.67;100.00;101084.72;6275044;28;20349;-74
2023/02/17 07:34:19;;;;;;;12.57;6.32;;;;;;;9.71;100.00;101088.94;6253684;28;20041;-74
2023/02/17 07:37:22;;;;;;;13.45;7.10;;;;;;;9.73;100.00;101091.50;6253573;28;20357;-75
2023/02/17 07:40:24;;;;;;;14.20;7.40;;;;;;;9.73;100.00;101102.00;6265584;28;20045;-74
2023/02/17 07:43:25;;;;;;;13.68;7.00;;;;;;;9.65;100.00;101100.56;6263646;28;20046;-73
2023/02/17 07:46:27;;;;;;;13.20;6.85;;;;;;;9.70;100.00;101105.59;6257072;28;20373;-73
2023/02/17 07:49:29;;;;;;;13.93;6.57;;;;;;;9.72;100.00;101100.28;6264156;28;20041;-73
2023/02/17 07:52:31;;;;;;;19.67;7.90;;;;;;;9.70;100.00;101097.72;6270432;28;20048;-74
2023/02/17 07:55:33;;;;;;;15.63;7.47;;;;;;;9.74;100.00;101107.16;6277791;28;20056;-73
2023/02/17 07:58:35;;;;;;;15.13;6.93;;;;;;;9.70;100.00;101102.97;6277265;28;20045;-73
2023/02/17 08:01:37;;;;;;;19.55;7.13;;;;;;;9.74;100.00;101088.81;6275905;28;20049;-73
2023/02/17 08:04:38;;;;;;;12.50;5.85;;;;;;;9.73;100.00;101102.00;6279756;28;20052;-73
2023/02/17 08:07:40;;;;;;;15.95;6.47;;;;;;;9.74;100.00;101106.31;6259216;28;20044;-74
2023/02/17 08:14:01;;;;;;;10.90;5.82;;;;;;;9.78;100.00;101086.91;6267109;28;20057;-76
2023/02/17 08:17:03;;;;;;;9.80;5.25;;;;;;;9.77;100.00;101098.31;6257811;28;20053;-75
2023/02/17 08:20:06;;;;;;;12.27;6.22;;;;;;;9.79;100.00;101091.22;6265080;28;20449;-74
2023/02/17 08:23:09;;;;;;;10.93;6.00;;;;;;;9.80;100.00;101074.53;6269153;28;20056;-74
2023/02/17 08:26:11;;;;;;;11.27;5.72;;;;;;;9.72;100.00;101063.53;6263379;28;20056;-74
2023/02/17 08:29:12;;;;;;;12.65;6.38;;;;;;;9.65;100.00;101063.81;6260287;28;20049;-74
2023/02/17 08:32:15;;;;;;;11.20;5.78;;;;;;;9.64;100.00;101059.50;6257716;28;20055;-74
2023/02/17 08:35:17;;;;;;;10.43;5.60;;;;;;;9.66;100.00;101052.38;6276824;28;20052;-76
2023/02/17 08:38:20;;;;;;;9.63;4.70;;;;;;;9.65;100.00;101062.97;6280804;28;20051;-75
2023/02/17 08:41:24;;;;;;;9.00;4.38;;;;;;;9.72;100.00;101037.28;6265105;28;20067;-75
2023/02/17 08:44:25;;;;;;;8.13;3.88;;;;;;;9.73;100.00;101039.88;6264828;28;20048;-75
2023/02/17 08:47:27;;;;;;;10.43;4.50;;;;;;;9.75;100.00;101061.63;6271560;28;20045;-75
2023/02/17 08:50:28;;;;;;;7.53;4.53;;;;;;;9.75;100.00;101040.63;6276783;28;20044;-74
2023/02/17 08:53:31;;;;;;;7.40;3.42;;;;;;;9.80;100.00;101045.66;6268785;28;20119;-74
2023/02/17 08:56:34;;;;;;;7.03;3.75;;;;;;;9.74;100.00;101052.06;6268157;28;20352;-73
2023/02/17 08:59:35;;;;;;;10.13;4.75;;;;;;;9.70;100.00;101053.13;6276622;28;20344;-77
2023/02/17 09:02:37;;;;;;;8.45;4.43;;;;;;;9.70;100.00;101071.47;6276682;28;20048;-75
2023/02/17 09:05:38;;;;;;;9.02;4.97;;;;;;;9.70;100.00;101066.22;6284357;28;20376;-76
2023/02/17 09:08:41;;;;;;;7.43;4.13;;;;;;;9.70;100.00;101058.38;6276288;28;20352;-76
2023/02/17 09:11:43;;;;;;;8.68;4.57;;;;;;;9.71;100.00;101061.84;6275607;28;20363;-75
2023/02/17 09:14:45;;;;;;;10.20;5.05;;;;;;;9.78;100.00;101071.16;6277214;28;20056;-75
2023/02/17 09:17:46;;;;;;;8.35;4.35;;;;;;;9.76;100.00;101075.59;6275359;28;20048;-75
2023/02/17 09:20:48;;;;;;;8.20;4.75;;;;;;;9.84;100.00;101045.47;6284213;28;20048;-77
2023/02/17 09:23:52;;;;;;;7.85;4.20;;;;;;;9.85;100.00;101036.66;6291973;28;20341;-77
2023/02/17 09:26:53;;;;;;;8.98;4.93;;;;;;;9.85;100.00;101044.53;6267740;28;20377;-76
2023/02/17 09:29:55;;;;;;;9.55;4.78;;;;;;;9.85;100.00;101035.81;6284031;28;20044;-76
2023/02/17 09:32:56;;;;;;;8.68;4.63;;;;;;;9.87;100.00;101039.25;6276237;28;20060;-76
2023/02/17 09:35:57;;;;;;;8.82;5.00;;;;;;;9.86;100.00;101027.03;6267039;28;20460;-76
2023/02/17 09:39:01;;;;;;;10.00;4.63;;;;;;;9.88;100.00;101025.19;6275329;28;20053;-75
2023/02/17 09:42:02;;;;;;;9.40;5.30;;;;;;;9.95;100.00;101020.47;6275756;28;20131;-75
2023/02/17 09:45:07;;;;;;;9.98;5.25;;;;;;;9.97;100.00;101030.00;6275366;28;20364;-75
2023/02/17 09:48:11;;;;;;;12.60;5.13;;;;;;;9.96;100.00;101035.34;6274938;28;20053;-75
2023/02/17 09:51:19;;;;;;;11.45;5.80;;;;;;;9.96;100.00;101023.06;6274818;28;20060;-75
2023/02/17 09:54:28;;;;;;;9.38;4.85;;;;;;;9.96;100.00;101009.94;6279855;28;20049;-77
2023/02/17 09:57:35;;;;;;;11.25;5.22;;;;;;;9.98;100.00;101015.94;6272017;28;20416;-77
2023/02/17 10:00:43;;;;;;;10.20;5.40;;;;;;;9.97;100.00;101032.63;6275527;28;20048;-76
2023/02/17 10:03:49;;;;;;;9.50;5.10;;;;;;;10.02;100.00;101019.28;6282428;28;20052;-77
2023/02/17 10:06:54;;;;;;;11.82;6.15;;;;;;;10.08;100.00;101017.25;6257144;28;20045;-78
2023/02/17 10:10:03;;;;;;;10.88;5.97;;;;;;;10.12;100.00;101039.78;6267903;28;20048;-78
2023/02/17 10:13:08;;;;;;;11.25;5.60;;;;;;;10.13;100.00;101019.66;6265102;28;20064;-76
2023/02/17 10:16:17;;;;;;;18.73;6.53;;;;;;;10.16;100.00;101017.72;6258587;28;20140;-78
2023/02/17 10:19:25;;;;;;;13.85;6.50;;;;;;;10.16;100.00;101016.88;6275095;28;20044;-76
2023/02/17 10:22:26;;;;;;;14.55;6.43;;;;;;;10.20;100.00;101009.69;6279644;28;20337;-76
2023/02/17 10:25:43;;;;;;;13.60;6.15;;;;;;;10.27;100.00;101006.75;6282691;28;20108;-77
2023/02/17 10:28:51;;;;;;;13.88;6.15;;;;;;;10.30;100.00;101008.34;6275026;28;20061;-78
2023/02/17 10:32:03;;;;;;;11.82;5.43;;;;;;;10.27;100.00;100995.41;6274929;28;20325;-77
2023/02/17 10:35:14;;;;;;;13.40;6.07;;;;;;;10.29;100.00;100997.00;6266309;28;20049;-79
2023/02/17 10:38:18;;;;;;;20.48;6.20;;;;;;;10.43;100.00;100990.22;6270929;28;20048;-77
2023/02/17 10:41:26;;;;;;;13.85;6.53;;;;;;;10.43;100.00;100983.19;6274696;28;20368;-75
2023/02/17 10:44:28;;;;;;;16.05;6.50;;;;;;;10.46;100.00;100985.69;6274346;28;20048;-76
2023/02/17 10:47:30;;;;;;;16.67;6.43;;;;;;;10.51;100.00;100969.69;6274490;28;20040;-77
2023/02/17 10:50:31;;;;;;;12.05;5.25;;;;;;;10.56;100.00;100980.81;6271709;28;20353;-77
2023/02/17 10:53:36;;;;;;;12.95;6.03;;;;;;;10.65;100.00;100985.63;6261563;28;20041;-76
2023/02/17 10:56:43;;;;;;;11.82;5.90;;;;;;;10.76;100.00;100982.44;6234176;28;20346;-76
2023/02/17 10:59:46;;;;;;;11.38;5.70;;;;;;;10.78;100.00;100970.94;6250014;28;20096;-77
2023/02/17 11:02:50;;;;;;;13.15;6.63;;;;;;;10.84;100.00;100954.84;6250475;28;20060;-77
2023/02/17 11:05:57;;;;;;;10.05;5.18;;;;;;;10.86;100.00;100945.13;6254171;28;20433;-75
2023/02/17 11:09:00;;;;;;;11.75;5.95;;;;;;;10.93;100.00;100948.28;6255893;28;20045;-76
2023/02/17 11:12:10;;;;;;;12.43;6.00;;;;;;;11.04;100.00;100943.31;6246267;28;20050;-75
2023/02/17 11:15:17;;;;;;;8.20;5.03;;;;;;;11.10;100.00;100957.94;6243615;28;20046;-74
2023/02/17 11:18:24;;;;;;;10.70;5.32;;;;;;;11.10;100.00;100943.00;6243187;28;20596;-75
2023/02/17 11:21:28;;;;;;;12.57;6.38;;;;;;;11.08;100.00;100928.19;6244967;28;20049;-75
2023/02/17 11:24:32;;;;;;;11.75;5.88;;;;;;;11.15;100.00;100943.59;6240356;28;20042;-75
2023/02/17 11:27:35;;;;;;;18.00;5.85;;;;;;;11.10;100.00;100964.03;6237445;28;20450;-76
2023/02/17 11:30:39;;;;;;;11.00;5.63;;;;;;;11.11;100.00;100944.69;6236466;28;20327;-75
2023/02/17 11:33:40;;;;;;;12.20;5.25;;;;;;;11.11;100.00;100946.47;6236720;28;20046;-75
2023/02/17 11:36:44;;;;;;;11.90;5.80;;;;;;;11.14;100.00;100956.84;6236569;28;20046;-75
2023/02/17 11:39:48;;;;;;;12.13;5.80;;;;;;;11.18;100.00;100950.50;6234781;28;20065;-75
2023/02/17 11:42:57;;;;;;;11.20;5.10;;;;;;;11.18;100.00;100953.97;6234400;28;20354;-75
2023/02/17 11:46:08;;;;;;;11.88;5.30;;;;;;;11.16;100.00;100954.97;6232601;28;20454;-75
2023/02/17 11:49:49;;;;;;;12.30;5.35;;;;;;;11.16;100.00;100947.06;6237391;28;20057;-74
2023/02/17 11:53:03;;;;;;;10.93;5.80;;;;;;;11.20;100.00;100955.66;6231422;28;20045;-75
2023/02/17 11:56:13;;;;;;;10.40;5.22;;;;;;;11.24;100.00;100965.94;6234471;28;20054;-76
2023/02/17 11:59:29;;;;;;;11.73;5.22;;;;;;;11.32;100.00;100979.53;6248766;28;20061;-75
2023/02/17 12:02:44;;;;;;;12.10;5.28;;;;;;;11.38;100.00;100971.31;6260594;28;20425;-76
2023/02/17 12:05:58;;;;;;;13.90;5.28;;;;;;;11.35;100.00;100971.47;6236412;28;20046;-75
2023/02/17 12:09:09;;;;;;;10.95;5.93;;;;;;;11.36;100.00;100981.09;6229510;28;20050;-75
2023/02/17 12:12:16;;;;;;;14.57;6.40;;;;;;;11.31;100.00;100963.81;6243336;28;20483;-75
2023/02/17 12:15:29;;;;;;;15.63;5.72;;;;;;;11.36;100.00;100977.59;6240108;28;20045;-74
2023/02/17 12:18:41;;;;;;;14.05;6.28;;;;;;;11.39;100.00;100975.66;6244547;28;20361;-75
2023/02/17 12:21:53;;;;;;;12.48;5.40;;;;;;;11.46;100.00;100970.06;6241919;28;20046;-77
2023/02/17 12:25:29;;;;;;;12.02;6.03;;;;;;;11.43;100.00;100974.56;6237103;28;20049;-76
2023/02/17 12:28:51;;;;;;;10.98;5.28;;;;;;;11.36;100.00;100975.81;6210034;28;20128;-75
2023/02/17 12:32:06;;;;;;;15.07;6.63;;;;;;;11.30;100.00;100973.50;6255371;28;20049;-75
2023/02/17 12:35:16;;;;;;;11.02;5.50;;;;;;;11.23;100.00;100969.50;6230239;28;20069;-75
2023/02/17 12:38:23;;;;;;;13.32;5.45;;;;;;;11.20;100.00;100959.13;6235582;28;20429;-75
2023/02/17 12:41:30;;;;;;;10.30;5.20;;;;;;;11.22;100.00;100964.31;6231581;28;20046;-75
2023/02/17 12:44:34;;;;;;;12.15;5.78;;;;;;;11.21;100.00;100962.63;6227409;28;20053;-74
2023/02/17 12:47:50;;;;;;;13.35;6.63;;;;;;;11.20;100.00;100972.28;6226994;28;20119;-75
2023/02/17 12:50:58;;;;;;;13.73;5.80;;;;;;;11.15;100.00;100963.78;6227350;28;20053;-77
2023/02/17 12:54:05;;;;;;;12.40;5.43;;;;;;;11.14;100.00;100970.84;6229983;28;20452;-74
2023/02/17 12:57:18;;;;;;;11.02;5.07;;;;;;;11.03;100.00;100967.03;6238887;28;20045;-76
2023/02/17 13:00:23;;;;;;;15.82;5.85;;;;;;;10.90;100.00;100954.56;6234536;28;20046;-76
2023/02/17 13:03:29;;;;;;;10.48;5.35;;;;;;;10.81;100.00;100972.53;6241591;28;20060;-75
2023/02/17 13:06:37;;;;;;;11.07;5.82;;;;;;;10.76;100.00;100972.78;6243336;28;20053;-75
2023/02/17 13:09:41;;;;;;;11.73;5.22;;;;;;;10.77;100.00;100978.91;6244862;28;20045;-77
2023/02/17 13:12:42;;;;;;;10.80;5.75;;;;;;;10.73;100.00;100987.88;6236202;28;20042;-77
2023/02/17 13:15:46;;;;;;;15.10;5.60;;;;;;;10.72;100.00;101004.56;6252702;28;20054;-77
2023/02/17 13:18:51;;;;;;;9.88;4.78;;;;;;;10.69;100.00;101017.88;6226834;28;20362;-77
2023/02/17 13:21:54;;;;;;;11.23;5.85;;;;;;;10.60;100.00;101030.53;6251886;28;20593;-77
2023/02/17 13:24:56;;;;;;;9.00;4.88;;;;;;;10.58;100.00;101010.50;6243097;28;20061;-78
2023/02/17 13:27:58;;;;;;;10.55;5.35;;;;;;;10.56;100.00;101004.47;6250318;28;20057;-77
2023/02/17 13:31:12;;;;;;;9.43;4.93;;;;;;;10.54;100.00;101025.59;6243046;28;20446;-76
2023/02/17 13:34:26;;;;;;;9.60;4.65;;;;;;;10.54;100.00;101035.25;6258909;28;20072;-77
2023/02/17 13:37:39;;;;;;;8.27;4.28;;;;;;;10.48;100.00;101022.38;6239326;28;20049;-76
2023/02/17 13:40:42;;;;;;;10.45;4.90;;;;;;;10.41;100.00;101024.47;6238153;28;20064;-77
2023/02/17 13:43:44;;;;;;;8.30;4.78;;;;;;;10.40;100.00;101030.63;6255202;28;20049;-77
2023/02/17 13:46:46;;;;;;;8.85;4.45;;;;;;;10.41;100.00;101017.44;6227902;28;20049;-76
2023/02/17 13:49:55;;;;;;;6.55;3.75;;;;;;;10.34;100.00;101023.91;6226422;28;20438;-74
2023/02/17 13:52:57;;;;;;;8.45;4.50;;;;;;;10.36;100.00;101016.81;6226427;28;20434;-76
2023/02/17 13:56:01;;;;;;;8.10;4.28;;;;;;;10.37;100.00;101015.03;6250676;28;20065;-77
2023/02/17 13:59:10;;;;;;;6.20;3.88;;;;;;;10.33;100.00;101037.97;6242214;28;20056;-77
2023/02/17 14:02:18;;;;;;;7.03;4.03;;;;;;;10.31;100.00;101046.84;6246489;28;20057;-77
2023/02/17 14:05:26;;;;;;;8.75;3.58;;;;;;;10.35;100.00;101056.28;6250347;28;20052;-76
2023/02/17 14:08:33;;;;;;;7.82;3.88;;;;;;;10.37;100.00;101034.28;6253528;28;20049;-77